createdAt,value
2023-04-21T00:00:44.379Z,17.50
2023-04-21T00:03:11.153Z,15.50
2023-04-21T00:05:38.055Z,17.25
2023-04-21T00:08:04.958Z,15.75
2023-04-21T00:10:31.673Z,15.75
2023-04-21T00:12:59.788Z,17.75
2023-04-21T00:15:26.554Z,10.50
2023-04-21T00:17:53.254Z,19.75
2023-04-21T00:20:20.139Z,14.50
2023-04-21T00:22:46.954Z,19.75
2023-04-21T00:25:13.592Z,15.50
2023-04-21T00:27:40.320Z,13.50
2023-04-21T00:30:09.722Z,14.25
2023-04-21T00:32:36.447Z,17.25
2023-04-21T00:35:03.223Z,18.00
2023-04-21T00:37:30.371Z,15.25
2023-04-21T00:39:57.078Z,22.00
2023-04-21T00:42:23.731Z,14.25
2023-04-21T00:44:50.467Z,14.50
2023-04-21T00:47:18.550Z,16.25
2023-04-21T00:49:45.584Z,18.75
2023-04-21T00:52:13.726Z,17.25
2023-04-21T00:54:40.709Z,16.00
2023-04-21T00:57:07.586Z,15.00
2023-04-21T00:59:34.403Z,18.00
2023-04-21T01:02:01.140Z,19.00
2023-04-21T01:04:29.820Z,19.25
2023-04-21T01:06:56.539Z,22.25
2023-04-21T01:09:23.229Z,17.50
2023-04-21T01:12:02.880Z,22.00
2023-04-21T01:14:29.912Z,26.25
2023-04-21T01:16:56.994Z,16.25
2023-04-21T01:19:24.301Z,12.50
2023-04-21T01:21:52.343Z,245.25
2023-04-21T01:24:19.043Z,15.25
2023-04-21T01:26:46.796Z,13.75
2023-04-21T01:29:16.958Z,31.00
2023-04-21T01:31:43.869Z,14.00
2023-04-21T01:34:10.609Z,14.25
2023-04-21T01:36:37.271Z,26.75
2023-04-21T01:39:05.541Z,25.25
2023-04-21T01:41:32.245Z,27.75
2023-04-21T01:43:58.925Z,22.00
2023-04-21T01:46:25.745Z,52.00
2023-04-21T01:48:52.405Z,25.50
2023-04-21T01:51:19.119Z,19.00
2023-04-21T01:53:45.832Z,20.50
2023-04-21T01:56:15.374Z,11.25
2023-04-21T01:58:42.041Z,18.75
2023-04-21T02:01:08.692Z,14.00
2023-04-21T02:03:36.207Z,11.00
2023-04-21T02:06:03.062Z,457.75
2023-04-21T02:08:29.812Z,20.00
2023-04-21T02:10:56.538Z,15.00
2023-04-21T02:13:24.593Z,45.75
2023-04-21T02:15:57.184Z,17.00
2023-04-21T02:18:29.348Z,22.50
2023-04-21T02:20:56.040Z,20.25
2023-04-21T02:23:22.688Z,1298.40
2023-04-21T02:25:49.415Z,18.50
2023-04-21T02:28:16.141Z,11.00
2023-04-21T02:30:44.226Z,15.50
2023-04-21T02:33:11.276Z,2284.20
2023-04-21T02:35:38.028Z,17.25
2023-04-21T02:38:04.664Z,18.75
2023-04-21T02:40:31.389Z,14.75
2023-04-21T02:42:58.023Z,30.50
2023-04-21T02:45:24.672Z,18.50
2023-04-21T02:47:52.703Z,10.25
2023-04-21T02:50:19.567Z,37.75
2023-04-21T02:52:46.287Z,16.50
2023-04-21T02:55:12.972Z,15.00
2023-04-21T02:57:39.632Z,16.25
2023-04-21T03:00:07.868Z,999.00
2023-04-21T03:02:34.631Z,4047.00
2023-04-21T03:05:02.897Z,22.75
2023-04-21T03:07:29.690Z,18.50
2023-04-21T03:09:56.352Z,33.60
2023-04-21T03:12:23.046Z,11.50
2023-04-21T03:14:49.684Z,18.75
2023-04-21T03:17:16.597Z,11.75
2023-04-21T03:19:43.301Z,24.00
2023-04-21T03:22:11.450Z,25.75
2023-04-21T03:24:38.092Z,34.25
2023-04-21T03:27:05.757Z,101.00
2023-04-21T03:29:32.444Z,68.60
2023-04-21T03:31:59.292Z,16.50
2023-04-21T03:34:25.963Z,28.75
2023-04-21T03:36:52.650Z,22.50
2023-04-21T03:39:20.842Z,20.50
2023-04-21T03:41:47.804Z,67.40
2023-04-21T03:44:14.552Z,125.00
2023-04-21T03:46:41.273Z,20.50
2023-04-21T03:49:08.015Z,999.20
2023-04-21T03:51:34.697Z,23.50
2023-04-21T03:54:01.337Z,22.00
2023-04-21T03:56:29.451Z,13.50
2023-04-21T03:58:56.182Z,21.00
2023-04-21T04:01:22.892Z,22.00
2023-04-21T04:03:49.729Z,22.50
2023-04-21T04:06:16.452Z,15.75
2023-04-21T04:08:43.236Z,22.25
2023-04-21T04:11:09.865Z,15.50
2023-04-21T04:13:37.916Z,17.75
2023-04-21T04:16:05.383Z,30.25
2023-04-21T04:18:32.122Z,609.50
2023-04-21T04:20:58.835Z,21.25
2023-04-21T04:23:25.664Z,18.50
2023-04-21T04:25:52.298Z,20.25
2023-04-21T04:28:18.936Z,22.25
2023-04-21T04:30:47.027Z,19.00
2023-04-21T04:33:13.704Z,44.00
2023-04-21T04:35:40.422Z,26.00
2023-04-21T04:38:07.108Z,41.25
2023-04-21T04:40:33.977Z,18.00
2023-04-21T04:43:00.676Z,26.50
2023-04-21T04:45:27.614Z,51.00
2023-04-21T04:47:55.712Z,22.50
2023-04-21T04:50:22.430Z,3326.80
2023-04-21T04:52:49.098Z,31.50
2023-04-21T04:55:15.895Z,28.00
2023-04-21T04:57:42.563Z,26.75
2023-04-21T05:00:10.246Z,26.25
2023-04-21T05:02:37.710Z,32.00
2023-04-21T05:05:07.540Z,2953.00
2023-04-21T05:07:34.996Z,46.75
2023-04-21T05:10:01.684Z,60.75
2023-04-21T05:12:28.361Z,51.67
2023-04-21T05:14:55.152Z,46.75
2023-04-21T05:17:21.839Z,3035.00
2023-04-21T05:19:48.536Z,2603.50
2023-04-21T05:22:16.620Z,649.25
2023-04-21T05:24:43.321Z,1013.75
2023-04-21T05:27:10.040Z,364.00
2023-04-21T05:29:36.728Z,358.50
2023-04-21T05:32:03.439Z,1231.40
2023-04-21T05:34:30.150Z,676.20
2023-04-21T05:36:56.852Z,49.00
2023-04-21T05:39:24.978Z,439.60
2023-04-21T05:41:51.627Z,443.25
2023-04-21T05:44:18.574Z,42.25
2023-04-21T05:46:45.620Z,94.20
2023-04-21T05:49:12.283Z,38.75
2023-04-21T05:51:38.980Z,56.00
2023-04-21T05:54:05.840Z,53.00
2023-04-21T05:56:33.951Z,83.75
2023-04-21T05:59:00.639Z,40.00
2023-04-21T06:01:27.343Z,33.50
2023-04-21T06:03:54.066Z,65.00
2023-04-21T06:06:20.869Z,582.00
2023-04-21T06:08:47.642Z,1922.00
2023-04-21T06:11:14.395Z,3969.00
2023-04-21T06:13:43.565Z,50.40
2023-04-21T06:16:10.444Z,1207.67
2023-04-21T06:18:37.201Z,29.75
2023-04-21T06:21:04.522Z,443.25
2023-04-21T06:23:31.230Z,325.25
2023-04-21T06:26:01.637Z,3947.40
2023-04-21T06:28:28.291Z,320.60
2023-04-21T06:30:56.382Z,3929.25
2023-04-21T06:33:23.163Z,3406.75
2023-04-21T06:35:49.835Z,3922.25
2023-04-21T06:38:16.519Z,120.00
2023-04-21T06:40:43.251Z,3658.00
2023-04-21T06:43:09.929Z,1629.25
2023-04-21T06:45:36.841Z,3900.00
2023-04-21T06:48:05.684Z,1098.25
2023-04-21T06:50:32.423Z,1382.75
2023-04-21T06:52:59.115Z,3868.25
2023-04-21T06:55:25.891Z,3847.20
2023-04-21T06:57:52.585Z,3849.20
2023-04-21T07:00:19.516Z,3715.80
2023-04-21T07:02:46.338Z,3857.60
2023-04-21T07:05:14.531Z,3898.40
2023-04-21T07:07:41.180Z,3890.75
2023-04-21T07:10:09.000Z,3557.40
2023-04-21T07:12:35.686Z,3854.60
2023-04-21T07:15:02.339Z,3293.50
2023-04-21T07:17:29.143Z,2722.33
2023-04-21T07:19:55.823Z,3728.00
2023-04-21T07:22:23.895Z,3807.60
2023-04-21T07:24:51.365Z,3782.20
2023-04-21T07:27:18.188Z,3800.40
2023-04-21T07:29:45.029Z,3784.00
2023-04-21T07:32:11.758Z,3791.40
2023-04-21T07:34:38.403Z,3800.40
2023-04-21T07:37:06.259Z,3783.40
2023-04-21T07:39:34.349Z,3518.40
2023-04-21T07:42:01.019Z,3793.60
2023-04-21T07:44:27.721Z,3822.80
2023-04-21T07:46:54.900Z,3781.60
2023-04-21T07:49:21.793Z,3418.60
2023-04-21T07:51:48.562Z,3817.40
2023-04-21T07:54:15.352Z,3046.67
2023-04-21T07:56:43.405Z,3783.40
2023-04-21T07:59:10.290Z,3728.00
2023-04-21T08:01:37.193Z,3718.00
2023-04-21T08:04:03.977Z,3754.50
2023-04-21T08:06:30.913Z,3394.00
2023-04-21T08:08:57.611Z,3721.40
2023-04-21T08:11:24.461Z,3730.20
2023-04-21T08:13:52.655Z,3713.40
2023-04-21T08:16:19.410Z,3301.40
2023-04-21T08:18:46.110Z,3711.80
2023-04-21T08:21:12.850Z,3685.80
2023-04-21T08:23:39.545Z,3256.75
2023-04-21T08:26:06.723Z,3707.60
2023-04-21T08:28:33.448Z,3750.75
2023-04-21T08:31:01.507Z,3783.60
2023-04-21T08:33:28.272Z,3817.40
2023-04-21T08:36:03.850Z,3849.00
2023-04-21T08:38:32.449Z,3885.80
2023-04-21T08:40:59.920Z,51.00
2023-04-21T08:43:26.888Z,3848.60
2023-04-21T08:45:54.795Z,3869.20
2023-04-21T08:48:22.938Z,3852.80
2023-04-21T08:50:51.089Z,2164.00
2023-04-21T08:53:18.045Z,3434.80
2023-04-21T08:55:49.294Z,3609.50
2023-04-21T08:58:18.009Z,3842.00
2023-04-21T09:00:44.756Z,3889.40
2023-04-21T09:03:23.071Z,3907.40
2023-04-21T09:06:01.692Z,28.75
2023-04-21T09:08:29.335Z,3888.50
2023-04-21T09:10:57.188Z,3923.60
2023-04-21T09:13:30.780Z,3188.40
2023-04-21T09:15:57.907Z,3131.80
2023-04-21T09:18:26.101Z,3911.20
2023-04-21T09:21:07.938Z,3908.75
2023-04-21T09:23:44.820Z,2993.75
2023-04-21T09:26:12.145Z,3035.60
2023-04-21T09:28:41.530Z,3022.75
2023-04-21T09:31:14.443Z,3955.00
2023-04-21T09:33:57.140Z,38.75
2023-04-21T09:36:28.183Z,3955.00
2023-04-21T09:41:28.585Z,4115.00
2023-04-21T09:43:55.329Z,4129.00
2023-04-21T09:46:23.324Z,871.40
2023-04-21T09:48:52.682Z,4167.00
2023-04-21T09:51:30.887Z,4034.60
2023-04-21T09:54:28.417Z,3655.00
2023-04-21T09:56:59.847Z,3621.80
2023-04-21T09:59:32.258Z,38.75
2023-04-21T10:02:00.401Z,2904.40
2023-04-21T10:04:29.492Z,3878.00
2023-04-21T10:06:57.294Z,4156.50
2023-04-21T10:09:30.930Z,4136.00
2023-04-21T10:11:58.092Z,4151.00
2023-04-21T10:14:25.698Z,4108.50
2023-04-21T10:16:56.894Z,3962.20
2023-04-21T10:19:24.747Z,4075.00
2023-04-21T10:21:51.739Z,4083.00
2023-04-21T10:24:18.806Z,3354.50
2023-04-21T10:26:47.115Z,4115.20
2023-04-21T10:29:13.889Z,4097.00
2023-04-21T10:31:51.592Z,4081.50
2023-04-21T10:34:28.536Z,4077.00
2023-04-21T10:37:31.416Z,3607.50
2023-04-21T10:39:58.100Z,1952.25
2023-04-21T10:42:28.921Z,33.25
2023-04-21T10:45:09.815Z,4103.00
2023-04-21T10:47:41.849Z,4123.75
2023-04-21T10:50:21.315Z,4121.20
2023-04-21T10:52:54.056Z,4141.50
2023-04-21T10:55:21.946Z,3462.75
2023-04-21T10:57:50.502Z,2305.80
2023-04-21T11:00:19.314Z,4143.80
2023-04-21T11:02:57.632Z,3618.00
2023-04-21T11:05:29.422Z,4093.00
2023-04-21T11:08:03.498Z,4113.75
2023-04-21T11:10:30.341Z,3792.25
2023-04-21T11:12:58.902Z,4000.40
2023-04-21T11:15:25.782Z,3691.20
2023-04-21T11:17:52.679Z,3566.80
2023-04-21T11:20:19.627Z,3920.20
2023-04-21T11:22:46.335Z,4042.25
2023-04-21T11:25:17.706Z,3633.00
2023-04-21T11:27:53.566Z,4063.80
2023-04-21T11:30:21.922Z,4040.60
2023-04-21T11:32:54.340Z,4017.40
2023-04-21T11:35:21.143Z,4037.50
2023-04-21T11:37:50.282Z,4002.60
2023-04-21T11:40:17.050Z,4052.00
2023-04-21T11:42:44.556Z,3710.80
2023-04-21T11:45:18.293Z,3926.60
2023-04-21T11:47:48.108Z,3698.20
2023-04-21T11:50:30.388Z,4075.80
2023-04-21T11:52:57.138Z,4121.00
2023-04-21T11:55:23.902Z,4113.00
2023-04-21T11:57:50.766Z,3661.20
2023-04-21T12:00:18.705Z,3343.40
2023-04-21T12:02:56.281Z,4153.20
2023-04-21T12:05:23.233Z,2633.40
2023-04-21T12:07:50.086Z,3876.80
2023-04-21T12:10:19.246Z,2747.40
2023-04-21T12:12:45.974Z,3603.00
2023-04-21T12:15:18.574Z,3327.80
2023-04-21T12:17:46.519Z,3762.40
2023-04-21T12:20:16.118Z,4103.50
2023-04-21T12:22:42.820Z,4131.00
2023-04-21T12:25:12.369Z,2894.40
2023-04-21T12:27:48.113Z,2384.40
2023-04-21T12:30:15.072Z,2962.00
2023-04-21T12:32:41.811Z,4111.25
2023-04-21T12:35:09.413Z,4103.00
2023-04-21T12:37:37.748Z,3718.40
2023-04-21T12:40:05.424Z,4145.20
2023-04-21T12:42:32.139Z,3893.00
2023-04-21T12:44:58.823Z,3743.00
2023-04-21T12:47:25.684Z,4184.75
2023-04-21T12:49:52.412Z,4168.20
2023-04-21T12:52:19.104Z,17.50
2023-04-21T12:54:47.152Z,22.50
2023-04-21T12:57:14.350Z,3098.60
2023-04-21T12:59:41.136Z,3423.75
2023-04-21T13:02:07.919Z,3539.80
2023-04-21T13:04:34.788Z,4089.00
2023-04-21T13:07:01.645Z,4038.60
2023-04-21T13:09:28.556Z,4067.60
2023-04-21T13:11:56.822Z,4030.00
2023-04-21T13:14:23.657Z,3972.40
2023-04-21T13:16:50.558Z,4001.80
2023-04-21T13:19:17.542Z,3155.60
2023-04-21T13:21:44.211Z,3898.80
2023-04-21T13:24:14.296Z,3913.20
2023-04-21T13:26:41.451Z,3896.60
2023-04-21T13:29:09.550Z,3668.50
2023-04-21T13:31:36.446Z,3886.75
2023-04-21T13:34:03.299Z,3884.00
2023-04-21T13:36:30.144Z,3657.00
2023-04-21T13:38:56.834Z,3944.00
2023-04-21T13:41:23.546Z,3931.00
2023-04-21T13:43:50.272Z,3881.00
2023-04-21T13:46:19.885Z,2743.80
2023-04-21T13:48:46.728Z,1980.20
2023-04-21T13:51:13.600Z,3158.60
2023-04-21T13:53:40.277Z,515.20
2023-04-21T13:56:06.948Z,988.20
2023-04-21T13:58:33.626Z,3565.20
2023-04-21T14:01:00.372Z,3766.80
2023-04-21T14:03:28.614Z,3925.00
2023-04-21T14:05:55.803Z,50.25
2023-04-21T14:08:22.849Z,24.75
2023-04-21T14:10:49.557Z,3953.20
2023-04-21T14:13:33.140Z,3916.80
2023-04-21T14:16:02.776Z,34.25
2023-04-21T14:18:30.902Z,15.50
2023-04-21T14:20:57.664Z,39.50
2023-04-21T14:23:24.504Z,12.67
2023-04-21T14:25:53.023Z,3888.50
2023-04-21T14:28:21.161Z,3871.60
2023-04-21T14:30:47.888Z,3595.00
2023-04-21T14:33:14.569Z,3852.80
2023-04-21T14:35:42.691Z,3862.80
2023-04-21T14:38:09.415Z,33.25
2023-04-21T14:40:36.115Z,28.25
2023-04-21T14:43:02.908Z,22.25
2023-04-21T14:45:29.853Z,15.33
2023-04-21T14:47:56.576Z,13.00
2023-04-21T14:50:23.398Z,14.00
2023-04-21T14:52:51.515Z,27.00
2023-04-21T14:55:18.247Z,44.50
2023-04-21T14:57:44.993Z,14.75
2023-04-21T15:00:12.758Z,20.00
2023-04-21T15:02:40.571Z,11.50
2023-04-21T15:05:08.232Z,16.25
2023-04-21T15:07:34.990Z,17.00
2023-04-21T15:10:03.324Z,34.25
2023-04-21T15:12:30.153Z,31.00
2023-04-21T15:14:56.961Z,58.25
2023-04-21T15:17:23.762Z,38.00
2023-04-21T15:19:50.680Z,26.75
2023-04-21T15:22:17.478Z,26.75
2023-04-21T15:24:44.252Z,28.50
2023-04-21T15:27:12.313Z,7.33
2023-04-21T15:29:39.019Z,10.75
2023-04-21T15:32:05.697Z,9.75
2023-04-21T15:34:33.028Z,6.67
2023-04-21T15:36:59.709Z,13.25
2023-04-21T15:39:26.448Z,9.25
2023-04-21T15:41:53.670Z,5.33
2023-04-21T15:44:21.880Z,14.50
2023-04-21T15:46:48.708Z,42.25
2023-04-21T15:49:15.528Z,19.75
2023-04-21T15:51:42.555Z,15.75
2023-04-21T15:54:09.409Z,16.00
2023-04-21T15:56:36.113Z,16.00
2023-04-21T15:59:02.798Z,28.67
2023-04-21T16:01:30.937Z,31.75
2023-04-21T16:03:58.585Z,23.50
2023-04-21T16:06:25.450Z,15.00
2023-04-21T16:08:52.333Z,48.25
2023-04-21T16:11:19.100Z,18.75
2023-04-21T16:13:45.910Z,12.00
2023-04-21T16:16:12.710Z,11.00
2023-04-21T16:18:41.162Z,5.25
2023-04-21T16:21:08.744Z,18.00
2023-04-21T16:23:35.554Z,4.00
2023-04-21T16:26:02.350Z,11.75
2023-04-21T16:28:29.005Z,6.25
2023-04-21T16:30:55.802Z,8.00
2023-04-21T16:33:22.557Z,3.67
2023-04-21T16:35:50.918Z,25.67
2023-04-21T16:38:17.660Z,21.25
2023-04-21T16:40:44.433Z,18.00
2023-04-21T16:43:11.238Z,27.67
2023-04-21T16:45:38.071Z,14.75
2023-04-21T16:48:05.108Z,37.25
2023-04-21T16:50:32.014Z,18.75
2023-04-21T16:53:00.334Z,36.25
2023-04-21T16:55:27.954Z,12.50
2023-04-21T16:57:54.685Z,23.67
2023-04-21T17:00:21.419Z,39.00
2023-04-21T17:02:48.174Z,14.25
2023-04-21T17:05:15.048Z,15.00
2023-04-21T17:07:41.777Z,34.00
2023-04-21T17:10:10.673Z,22.00
2023-04-21T17:12:37.412Z,14.00
2023-04-21T17:15:04.581Z,32.00
2023-04-21T17:17:39.976Z,30.33
2023-04-21T17:20:08.771Z,47.25
2023-04-21T17:22:35.465Z,39.50
2023-04-21T17:25:02.342Z,21.25
2023-04-21T17:27:30.706Z,15.75
2023-04-21T17:29:57.511Z,34.50
2023-04-21T17:32:24.294Z,16.25
2023-04-21T17:34:51.078Z,45.75
2023-04-21T17:37:17.726Z,37.25
2023-04-21T17:39:44.560Z,29.25
2023-04-21T17:42:11.269Z,11.50
2023-04-21T17:44:39.599Z,57.00
2023-04-21T17:47:06.418Z,21.00
2023-04-21T17:49:33.173Z,64.00
2023-04-21T17:51:59.931Z,19.50
2023-04-21T17:54:26.877Z,11.00
2023-04-21T17:56:53.639Z,19.75
2023-04-21T17:59:20.580Z,56.75
2023-04-21T18:01:48.831Z,26.00
2023-04-21T18:04:15.692Z,34.25
2023-04-21T18:06:42.707Z,55.67
2023-04-21T18:09:09.564Z,57.00
2023-04-21T18:11:36.455Z,23.25
2023-04-21T18:14:03.137Z,32.00
2023-04-21T18:16:29.956Z,37.25
2023-04-21T18:18:58.138Z,26.00
2023-04-21T18:21:25.053Z,35.00
2023-04-21T18:23:51.799Z,29.00
2023-04-21T18:26:18.506Z,33.50
2023-04-21T18:28:45.235Z,40.25
2023-04-21T18:31:12.042Z,27.00
2023-04-21T18:33:38.890Z,42.00
2023-04-21T18:36:08.184Z,36.50
2023-04-21T18:38:34.893Z,42.75
2023-04-21T18:41:01.596Z,32.00
2023-04-21T18:43:28.560Z,36.75
2023-04-21T18:45:55.364Z,35.25
2023-04-21T18:48:22.014Z,38.50
2023-04-21T18:50:48.762Z,35.00
2023-04-21T18:53:16.812Z,34.50
2023-04-21T18:55:43.486Z,39.50
2023-04-21T18:58:10.126Z,31.50
2023-04-21T19:00:36.821Z,35.50
2023-04-21T19:03:04.770Z,37.00
2023-04-21T19:05:31.975Z,36.75
2023-04-21T19:07:58.745Z,34.50
2023-04-21T19:10:27.069Z,37.00
2023-04-21T19:12:54.278Z,41.75
2023-04-21T19:15:22.208Z,31.75
2023-04-21T19:17:48.977Z,41.00
2023-04-21T19:20:15.830Z,40.25
2023-04-21T19:22:42.707Z,34.25
2023-04-21T19:25:10.415Z,40.75
2023-04-21T19:27:40.741Z,38.25
2023-04-21T19:30:08.660Z,20.25
2023-04-21T19:32:35.466Z,37.00
2023-04-21T19:35:02.168Z,24.50
2023-04-21T19:37:28.910Z,36.00
2023-04-21T19:39:55.672Z,35.50
2023-04-21T19:42:22.338Z,39.25
2023-04-21T19:44:50.622Z,31.50
2023-04-21T19:47:17.339Z,43.75
2023-04-21T19:49:44.091Z,40.75
2023-04-21T19:52:10.833Z,37.50
2023-04-21T19:54:37.900Z,34.00
2023-04-21T19:57:04.869Z,42.25
2023-04-21T19:59:31.539Z,36.50
2023-04-21T20:01:59.823Z,33.50
2023-04-21T20:04:27.012Z,34.25
2023-04-21T20:06:53.738Z,40.50
2023-04-21T20:09:20.441Z,41.00
2023-04-21T20:11:47.080Z,45.00
2023-04-21T20:14:13.738Z,39.50
2023-04-21T20:16:40.573Z,37.50
2023-04-21T20:19:08.719Z,40.50
2023-04-21T20:21:35.496Z,39.75
2023-04-21T20:24:02.204Z,37.25
2023-04-21T20:26:29.375Z,37.25
2023-04-21T20:28:56.137Z,47.25
2023-04-21T20:31:22.827Z,40.25
2023-04-21T20:33:49.564Z,38.75
2023-04-21T20:36:17.969Z,40.25
2023-04-21T20:38:44.634Z,43.50
2023-04-21T20:41:11.299Z,42.75
2023-04-21T20:43:38.066Z,41.75
2023-04-21T20:46:04.740Z,44.75
2023-04-21T20:48:31.389Z,37.50
2023-04-21T20:50:58.102Z,37.50
2023-04-21T20:53:26.280Z,42.75
2023-04-21T20:55:52.993Z,41.50
2023-04-21T20:58:19.754Z,44.00
2023-04-21T21:00:46.557Z,46.50
2023-04-21T21:03:13.371Z,44.00
2023-04-21T21:05:40.598Z,40.25
2023-04-21T21:08:07.720Z,37.00
2023-04-21T21:10:35.900Z,36.75
2023-04-21T21:13:02.719Z,36.50
2023-04-21T21:15:29.819Z,39.00
2023-04-21T21:17:56.568Z,36.75
2023-04-21T21:20:23.384Z,38.25
2023-04-21T21:22:50.054Z,37.25
2023-04-21T21:25:16.862Z,44.25
2023-04-21T21:27:44.972Z,40.25
2023-04-21T21:30:12.182Z,36.00
2023-04-21T21:32:38.910Z,41.00
2023-04-21T21:35:06.484Z,46.25
2023-04-21T21:37:33.251Z,44.25
2023-04-21T21:39:59.999Z,47.00
2023-04-21T21:42:26.653Z,52.75
2023-04-21T21:44:54.689Z,59.67
2023-04-21T21:47:21.394Z,50.25
2023-04-21T21:49:48.599Z,49.50
2023-04-21T21:52:15.309Z,620.25
2023-04-21T21:54:41.978Z,3717.20
2023-04-21T21:57:08.708Z,566.20
2023-04-21T21:59:35.586Z,3136.00
2023-04-21T22:02:03.964Z,44.50
2023-04-21T22:04:30.862Z,2633.80
2023-04-21T22:06:57.562Z,3029.25
2023-04-21T22:09:24.230Z,91.00
2023-04-21T22:11:50.948Z,3915.50
2023-04-21T22:14:23.415Z,633.75
2023-04-21T22:16:50.767Z,175.80
2023-04-21T22:19:19.110Z,3098.80
2023-04-21T22:21:46.022Z,117.60
2023-04-21T22:24:13.045Z,40.00
2023-04-21T22:26:39.817Z,3846.75
2023-04-21T22:29:06.658Z,44.75
2023-04-21T22:31:33.378Z,114.00
2023-04-21T22:34:00.089Z,111.00
2023-04-21T22:36:28.236Z,2353.80
2023-04-21T22:38:54.989Z,42.50
2023-04-21T22:41:21.730Z,41.50
2023-04-21T22:43:48.419Z,76.40
2023-04-21T22:46:15.324Z,349.40
2023-04-21T22:48:42.042Z,43.25
2023-04-21T22:51:08.740Z,44.25
2023-04-21T22:53:37.004Z,137.20
2023-04-21T22:56:03.887Z,47.75
2023-04-21T22:58:30.619Z,52.00
2023-04-21T23:00:57.290Z,64.00
2023-04-21T23:03:24.115Z,47.25
2023-04-21T23:05:51.117Z,44.25
2023-04-21T23:08:17.793Z,57.75
2023-04-21T23:10:45.908Z,44.25
2023-04-21T23:13:12.685Z,42.25
2023-04-21T23:15:39.404Z,46.75
2023-04-21T23:18:06.270Z,43.00
2023-04-21T23:20:33.060Z,39.25
2023-04-21T23:22:59.919Z,40.50
2023-04-21T23:25:26.570Z,38.00
2023-04-21T23:27:54.694Z,42.25
2023-04-21T23:30:21.340Z,42.25
2023-04-21T23:32:48.072Z,38.25
2023-04-21T23:35:14.803Z,41.25
2023-04-21T23:37:41.489Z,1406.50
2023-04-21T23:40:09.168Z,124.40
2023-04-21T23:42:36.193Z,39.50
2023-04-21T23:45:04.946Z,42.00
2023-04-21T23:47:31.599Z,1545.20
2023-04-21T23:49:58.822Z,347.00
2023-04-21T23:52:25.952Z,1245.80
2023-04-21T23:54:52.738Z,179.80
2023-04-21T23:57:19.413Z,38.75
2023-04-21T23:59:46.200Z,39.75
